sensor_id;sensor_type;location;lat;lon;timestamp;pressure;altitude;pressure_sealevel;temperature;humidity
34658;BME280;20865;43.312;27.152;2023-05-22T00:01:34;100155.51;;;25.26;38.42
34658;BME280;20865;43.312;27.152;2023-05-22T00:04:02;100158.47;;;25.29;38.42
34658;BME280;20865;43.312;27.152;2023-05-22T00:06:32;100156.14;;;25.24;38.58
34658;BME280;20865;43.312;27.152;2023-05-22T00:08:59;100153.63;;;25.27;38.55
34658;BME280;20865;43.312;27.152;2023-05-22T00:11:26;100157.89;;;25.35;38.41
34658;BME280;20865;43.312;27.152;2023-05-22T00:14:00;100149.91;;;25.18;38.69
34658;BME280;20865;43.312;27.152;2023-05-22T00:16:31;100149.98;;;25.22;38.70
34658;BME280;20865;43.312;27.152;2023-05-22T00:18:55;100145.42;;;25.17;38.89
34658;BME280;20865;43.312;27.152;2023-05-22T00:21:22;100138.47;;;25.18;38.84
34658;BME280;20865;43.312;27.152;2023-05-22T00:23:51;100138.42;;;25.09;39.04
34658;BME280;20865;43.312;27.152;2023-05-22T00:26:19;100139.63;;;25.10;39.10
34658;BME280;20865;43.312;27.152;2023-05-22T00:28:47;100143.95;;;25.03;39.20
34658;BME280;20865;43.312;27.152;2023-05-22T00:31:16;100139.84;;;25.03;39.24
34658;BME280;20865;43.312;27.152;2023-05-22T00:33:50;100140.58;;;25.05;39.30
34658;BME280;20865;43.312;27.152;2023-05-22T00:36:14;100137.43;;;25.00;39.43
34658;BME280;20865;43.312;27.152;2023-05-22T00:38:41;100143.02;;;24.99;39.49
34658;BME280;20865;43.312;27.152;2023-05-22T00:41:09;100147.39;;;24.95;39.64
34658;BME280;20865;43.312;27.152;2023-05-22T00:43:37;100149.69;;;24.81;39.96
34658;BME280;20865;43.312;27.152;2023-05-22T00:46:04;100152.41;;;24.81;39.89
34658;BME280;20865;43.312;27.152;2023-05-22T00:48:33;100141.63;;;24.89;39.68
34658;BME280;20865;43.312;27.152;2023-05-22T00:51:00;100143.08;;;24.48;40.30
34658;BME280;20865;43.312;27.152;2023-05-22T00:53:31;100151.73;;;24.63;39.84
34658;BME280;20865;43.312;27.152;2023-05-22T00:56:02;100151.27;;;24.93;39.58
34658;BME280;20865;43.312;27.152;2023-05-22T00:58:31;100148.34;;;24.90;39.77
34658;BME280;20865;43.312;27.152;2023-05-22T01:00:58;100151.63;;;24.34;40.81
34658;BME280;20865;43.312;27.152;2023-05-22T01:03:26;100155.66;;;25.00;39.70
34658;BME280;20865;43.312;27.152;2023-05-22T01:05:57;100157.19;;;24.98;39.62
34658;BME280;20865;43.312;27.152;2023-05-22T01:08:23;100155.09;;;24.96;39.68
34658;BME280;20865;43.312;27.152;2023-05-22T01:10:51;100150.70;;;24.80;40.14
34658;BME280;20865;43.312;27.152;2023-05-22T01:13:24;100156.55;;;25.00;39.72
34658;BME280;20865;43.312;27.152;2023-05-22T01:15:48;100154.73;;;24.95;39.83
34658;BME280;20865;43.312;27.152;2023-05-22T01:18:31;100147.27;;;24.97;39.94
34658;BME280;20865;43.312;27.152;2023-05-22T01:31:20;100148.55;;;25.03;39.91
34658;BME280;20865;43.312;27.152;2023-05-22T01:33:51;100145.98;;;25.01;40.01
34658;BME280;20865;43.312;27.152;2023-05-22T01:36:19;100151.80;;;25.02;40.06
34658;BME280;20865;43.312;27.152;2023-05-22T01:38:51;100148.53;;;24.93;40.16
34658;BME280;20865;43.312;27.152;2023-05-22T01:41:18;100145.89;;;24.87;40.15
34658;BME280;20865;43.312;27.152;2023-05-22T01:43:46;100143.59;;;24.83;40.33
34658;BME280;20865;43.312;27.152;2023-05-22T01:46:13;100148.67;;;24.82;40.41
34658;BME280;20865;43.312;27.152;2023-05-22T01:48:44;100142.86;;;24.81;40.40
34658;BME280;20865;43.312;27.152;2023-05-22T01:51:12;100135.09;;;24.76;40.44
34658;BME280;20865;43.312;27.152;2023-05-22T01:53:46;100132.72;;;24.77;40.35
34658;BME280;20865;43.312;27.152;2023-05-22T01:56:11;100136.30;;;24.78;40.45
34658;BME280;20865;43.312;27.152;2023-05-22T01:58:54;100135.80;;;24.78;40.46
34658;BME280;20865;43.312;27.152;2023-05-22T02:01:21;100137.95;;;24.75;40.48
34658;BME280;20865;43.312;27.152;2023-05-22T02:03:39;100142.91;;;24.75;40.47
34658;BME280;20865;43.312;27.152;2023-05-22T02:06:05;100143.99;;;24.78;40.55
34658;BME280;20865;43.312;27.152;2023-05-22T02:08:34;100144.27;;;24.75;40.59
34658;BME280;20865;43.312;27.152;2023-05-22T02:11:05;100142.83;;;24.71;40.61
34658;BME280;20865;43.312;27.152;2023-05-22T02:13:31;100145.21;;;24.70;40.53
34658;BME280;20865;43.312;27.152;2023-05-22T02:15:59;100140.18;;;24.65;40.36
34658;BME280;20865;43.312;27.152;2023-05-22T02:18:27;100135.70;;;24.64;40.52
34658;BME280;20865;43.312;27.152;2023-05-22T02:20:56;100135.50;;;24.62;40.73
34658;BME280;20865;43.312;27.152;2023-05-22T02:23:25;100142.66;;;24.38;41.25
34658;BME280;20865;43.312;27.152;2023-05-22T02:25:51;100139.88;;;24.28;41.49
34658;BME280;20865;43.312;27.152;2023-05-22T02:28:18;100144.94;;;24.17;41.68
34658;BME280;20865;43.312;27.152;2023-05-22T02:30:50;100143.51;;;24.23;41.66
34658;BME280;20865;43.312;27.152;2023-05-22T02:33:17;100144.69;;;24.30;41.41
34658;BME280;20865;43.312;27.152;2023-05-22T02:35:43;100142.19;;;23.66;42.60
34658;BME280;20865;43.312;27.152;2023-05-22T02:38:13;100140.92;;;23.75;42.39
34658;BME280;20865;43.312;27.152;2023-05-22T02:40:40;100148.28;;;23.85;41.79
34658;BME280;20865;43.312;27.152;2023-05-22T02:43:07;100154.47;;;24.02;41.44
34658;BME280;20865;43.312;27.152;2023-05-22T02:45:35;100141.12;;;24.14;41.11
34658;BME280;20865;43.312;27.152;2023-05-22T02:48:04;100156.52;;;23.94;41.49
34658;BME280;20865;43.312;27.152;2023-05-22T02:50:32;100161.00;;;23.95;41.42
34658;BME280;20865;43.312;27.152;2023-05-22T02:53:01;100159.31;;;23.89;41.70
34658;BME280;20865;43.312;27.152;2023-05-22T02:55:28;100162.97;;;23.51;42.60
34658;BME280;20865;43.312;27.152;2023-05-22T02:57:55;100159.48;;;23.55;42.60
34658;BME280;20865;43.312;27.152;2023-05-22T03:00:28;100157.34;;;23.85;41.90
34658;BME280;20865;43.312;27.152;2023-05-22T03:02:59;100154.98;;;23.86;41.75
34658;BME280;20865;43.312;27.152;2023-05-22T03:05:28;100165.80;;;23.82;41.51
34658;BME280;20865;43.312;27.152;2023-05-22T03:07:51;100168.30;;;23.26;42.61
34658;BME280;20865;43.312;27.152;2023-05-22T03:10:19;100164.30;;;23.36;42.38
34658;BME280;20865;43.312;27.152;2023-05-22T03:12:54;100172.06;;;23.67;41.80
34658;BME280;20865;43.312;27.152;2023-05-22T03:15:21;100165.11;;;23.74;41.75
34658;BME280;20865;43.312;27.152;2023-05-22T03:17:52;100161.73;;;23.76;41.81
34658;BME280;20865;43.312;27.152;2023-05-22T03:20:16;100166.95;;;23.74;41.80
34658;BME280;20865;43.312;27.152;2023-05-22T03:22:47;100167.83;;;23.48;42.24
34658;BME280;20865;43.312;27.152;2023-05-22T03:25:13;100162.00;;;23.73;41.69
34658;BME280;20865;43.312;27.152;2023-05-22T03:27:40;100172.91;;;23.73;41.79
34658;BME280;20865;43.312;27.152;2023-05-22T03:30:09;100175.89;;;23.70;41.93
34658;BME280;20865;43.312;27.152;2023-05-22T03:32:35;100164.48;;;23.71;42.01
34658;BME280;20865;43.312;27.152;2023-05-22T03:35:05;100167.23;;;23.65;42.10
34658;BME280;20865;43.312;27.152;2023-05-22T03:37:36;100168.36;;;23.68;42.17
34658;BME280;20865;43.312;27.152;2023-05-22T03:40:04;100164.72;;;23.73;42.16
34658;BME280;20865;43.312;27.152;2023-05-22T03:42:31;100167.34;;;23.75;42.20
34658;BME280;20865;43.312;27.152;2023-05-22T03:44:59;100167.54;;;23.77;42.31
34658;BME280;20865;43.312;27.152;2023-05-22T03:47:26;100168.79;;;23.79;42.39
34658;BME280;20865;43.312;27.152;2023-05-22T03:49:53;100173.13;;;23.82;42.45
34658;BME280;20865;43.312;27.152;2023-05-22T03:52:22;100180.14;;;23.84;42.41
34658;BME280;20865;43.312;27.152;2023-05-22T03:54:48;100176.53;;;23.89;42.47
34658;BME280;20865;43.312;27.152;2023-05-22T03:57:17;100179.70;;;23.94;42.55
34658;BME280;20865;43.312;27.152;2023-05-22T03:59:45;100174.34;;;23.98;42.55
34658;BME280;20865;43.312;27.152;2023-05-22T04:02:12;100176.20;;;23.98;42.61
34658;BME280;20865;43.312;27.152;2023-05-22T04:04:41;100184.01;;;24.03;42.60
34658;BME280;20865;43.312;27.152;2023-05-22T04:07:13;100188.88;;;23.99;42.64
34658;BME280;20865;43.312;27.152;2023-05-22T04:09:38;100179.59;;;24.11;42.64
34658;BME280;20865;43.312;27.152;2023-05-22T04:12:06;100169.21;;;24.05;42.89
34658;BME280;20865;43.312;27.152;2023-05-22T04:14:35;100172.77;;;24.11;42.86
34658;BME280;20865;43.312;27.152;2023-05-22T04:17:01;100168.25;;;24.16;42.90
34658;BME280;20865;43.312;27.152;2023-05-22T04:19:30;100171.10;;;24.20;42.88
34658;BME280;20865;43.312;27.152;2023-05-22T04:22:00;100175.55;;;24.21;43.09
34658;BME280;20865;43.312;27.152;2023-05-22T04:24:24;100174.16;;;24.36;42.88
34658;BME280;20865;43.312;27.152;2023-05-22T04:26:53;100174.87;;;24.44;42.93
34658;BME280;20865;43.312;27.152;2023-05-22T04:29:21;100173.03;;;24.44;43.11
34658;BME280;20865;43.312;27.152;2023-05-22T04:31:50;100169.22;;;24.51;43.04
34658;BME280;20865;43.312;27.152;2023-05-22T04:34:18;100164.64;;;24.52;43.09
34658;BME280;20865;43.312;27.152;2023-05-22T04:36:46;100169.77;;;23.99;44.13
34658;BME280;20865;43.312;27.152;2023-05-22T04:39:15;100163.88;;;23.88;44.60
34658;BME280;20865;43.312;27.152;2023-05-22T04:41:42;100169.38;;;23.83;44.80
34658;BME280;20865;43.312;27.152;2023-05-22T04:44:10;100167.88;;;23.84;44.98
34658;BME280;20865;43.312;27.152;2023-05-22T04:46:39;100165.98;;;23.90;45.27
34658;BME280;20865;43.312;27.152;2023-05-22T04:49:05;100163.67;;;23.86;45.40
34658;BME280;20865;43.312;27.152;2023-05-22T04:51:37;100169.45;;;23.92;45.35
34658;BME280;20865;43.312;27.152;2023-05-22T04:54:04;100161.88;;;24.06;45.04
34658;BME280;20865;43.312;27.152;2023-05-22T04:56:30;100157.16;;;24.23;44.97
34658;BME280;20865;43.312;27.152;2023-05-22T04:58:57;100167.49;;;24.35;44.90
34658;BME280;20865;43.312;27.152;2023-05-22T05:01:24;100163.67;;;24.47;44.62
34658;BME280;20865;43.312;27.152;2023-05-22T05:03:54;100162.34;;;24.57;44.63
34658;BME280;20865;43.312;27.152;2023-05-22T05:06:22;100160.00;;;24.67;44.35
34658;BME280;20865;43.312;27.152;2023-05-22T05:08:49;100156.44;;;24.77;44.01
34658;BME280;20865;43.312;27.152;2023-05-22T05:11:22;100156.46;;;24.86;43.77
34658;BME280;20865;43.312;27.152;2023-05-22T05:13:47;100154.16;;;24.91;43.59
34658;BME280;20865;43.312;27.152;2023-05-22T05:16:17;100137.41;;;24.90;43.62
34658;BME280;20865;43.312;27.152;2023-05-22T05:18:44;100141.08;;;24.95;43.57
34658;BME280;20865;43.312;27.152;2023-05-22T05:21:10;100143.95;;;25.03;43.60
34658;BME280;20865;43.312;27.152;2023-05-22T05:23:37;100142.34;;;25.16;43.43
34658;BME280;20865;43.312;27.152;2023-05-22T05:26:09;100141.20;;;25.28;43.38
34658;BME280;20865;43.312;27.152;2023-05-22T05:28:35;100136.84;;;25.45;42.64
34658;BME280;20865;43.312;27.152;2023-05-22T05:31:01;100138.50;;;25.52;42.44
34658;BME280;20865;43.312;27.152;2023-05-22T05:33:29;100140.46;;;25.98;41.50
34658;BME280;20865;43.312;27.152;2023-05-22T05:35:56;100152.87;;;26.30;41.18
34658;BME280;20865;43.312;27.152;2023-05-22T05:38:23;100149.70;;;26.48;40.68
34658;BME280;20865;43.312;27.152;2023-05-22T05:40:53;100151.67;;;26.56;40.28
34658;BME280;20865;43.312;27.152;2023-05-22T05:43:26;100145.25;;;26.61;40.48
34658;BME280;20865;43.312;27.152;2023-05-22T05:45:47;100148.67;;;26.63;40.35
34658;BME280;20865;43.312;27.152;2023-05-22T05:48:16;100151.63;;;26.66;40.57
34658;BME280;20865;43.312;27.152;2023-05-22T05:50:43;100152.98;;;26.79;40.35
34658;BME280;20865;43.312;27.152;2023-05-22T05:53:11;100151.95;;;26.80;40.86
34658;BME280;20865;43.312;27.152;2023-05-22T05:55:44;100155.74;;;27.29;39.46
34658;BME280;20865;43.312;27.152;2023-05-22T05:58:10;100151.38;;;27.58;39.35
34658;BME280;20865;43.312;27.152;2023-05-22T06:00:39;100158.66;;;27.71;39.18
34658;BME280;20865;43.312;27.152;2023-05-22T06:03:09;100157.27;;;27.89;38.69
34658;BME280;20865;43.312;27.152;2023-05-22T06:05:36;100153.25;;;28.01;38.04
34658;BME280;20865;43.312;27.152;2023-05-22T06:08:06;100149.48;;;28.07;37.96
34658;BME280;20865;43.312;27.152;2023-05-22T06:10:33;100155.03;;;28.11;38.05
34658;BME280;20865;43.312;27.152;2023-05-22T06:13:00;100154.22;;;28.22;37.98
34658;BME280;20865;43.312;27.152;2023-05-22T06:15:26;100162.34;;;28.32;38.15
34658;BME280;20865;43.312;27.152;2023-05-22T06:17:55;100160.38;;;28.46;37.62
34658;BME280;20865;43.312;27.152;2023-05-22T06:20:23;100158.17;;;28.54;37.29
34658;BME280;20865;43.312;27.152;2023-05-22T06:22:52;100156.34;;;28.63;37.10
34658;BME280;20865;43.312;27.152;2023-05-22T06:25:21;100158.06;;;28.72;37.33
34658;BME280;20865;43.312;27.152;2023-05-22T06:27:48;100156.74;;;28.84;37.27
34658;BME280;20865;43.312;27.152;2023-05-22T06:30:15;100155.52;;;28.87;37.77
34658;BME280;20865;43.312;27.152;2023-05-22T06:32:42;100153.67;;;28.95;37.17
34658;BME280;20865;43.312;27.152;2023-05-22T06:35:09;100158.35;;;29.03;36.87
34658;BME280;20865;43.312;27.152;2023-05-22T06:37:39;100157.41;;;28.86;37.42
34658;BME280;20865;43.312;27.152;2023-05-22T06:40:10;100157.27;;;28.84;37.97
34658;BME280;20865;43.312;27.152;2023-05-22T06:42:35;100163.95;;;28.89;37.62
34658;BME280;20865;43.312;27.152;2023-05-22T06:45:04;100158.69;;;29.00;37.20
34658;BME280;20865;43.312;27.152;2023-05-22T06:47:34;100157.31;;;29.00;37.54
34658;BME280;20865;43.312;27.152;2023-05-22T06:49:59;100150.44;;;29.04;37.67
34658;BME280;20865;43.312;27.152;2023-05-22T06:52:26;100157.87;;;29.16;37.89
34658;BME280;20865;43.312;27.152;2023-05-22T06:54:55;100161.47;;;29.25;37.81
34658;BME280;20865;43.312;27.152;2023-05-22T06:57:23;100157.38;;;29.33;37.70
34658;BME280;20865;43.312;27.152;2023-05-22T06:59:50;100161.68;;;29.43;37.13
34658;BME280;20865;43.312;27.152;2023-05-22T07:02:19;100164.42;;;29.48;36.63
34658;BME280;20865;43.312;27.152;2023-05-22T07:04:49;100153.23;;;29.45;36.27
34658;BME280;20865;43.312;27.152;2023-05-22T07:07:24;100143.46;;;29.75;36.52
34658;BME280;20865;43.312;27.152;2023-05-22T07:09:56;100143.27;;;29.81;36.56
34658;BME280;20865;43.312;27.152;2023-05-22T07:12:23;100151.36;;;29.82;36.79
34658;BME280;20865;43.312;27.152;2023-05-22T07:14:54;100145.34;;;29.79;34.73
34658;BME280;20865;43.312;27.152;2023-05-22T07:17:22;100154.77;;;30.01;34.83
34658;BME280;20865;43.312;27.152;2023-05-22T07:19:49;100154.58;;;30.10;34.00
34658;BME280;20865;43.312;27.152;2023-05-22T07:22:16;100148.73;;;30.18;34.49
34658;BME280;20865;43.312;27.152;2023-05-22T07:24:44;100144.05;;;30.26;34.19
34658;BME280;20865;43.312;27.152;2023-05-22T07:27:20;100145.80;;;30.23;34.19
34658;BME280;20865;43.312;27.152;2023-05-22T07:29:40;100139.42;;;30.27;33.68
34658;BME280;20865;43.312;27.152;2023-05-22T07:32:07;100138.90;;;30.27;33.93
34658;BME280;20865;43.312;27.152;2023-05-22T07:34:36;100130.80;;;30.26;34.27
34658;BME280;20865;43.312;27.152;2023-05-22T07:37:10;100143.36;;;30.28;34.15
34658;BME280;20865;43.312;27.152;2023-05-22T07:39:32;100147.16;;;30.19;35.50
34658;BME280;20865;43.312;27.152;2023-05-22T07:42:04;100147.16;;;30.27;34.00
34658;BME280;20865;43.312;27.152;2023-05-22T07:44:29;100146.38;;;30.50;32.41
34658;BME280;20865;43.312;27.152;2023-05-22T07:46:58;100146.92;;;30.37;33.05
34658;BME280;20865;43.312;27.152;2023-05-22T07:49:25;100137.25;;;30.49;32.78
34658;BME280;20865;43.312;27.152;2023-05-22T07:51:51;100151.06;;;31.12;33.28
34658;BME280;20865;43.312;27.152;2023-05-22T07:54:18;100135.58;;;31.34;32.71
34658;BME280;20865;43.312;27.152;2023-05-22T07:56:45;100140.11;;;31.49;32.65
34658;BME280;20865;43.312;27.152;2023-05-22T07:59:12;100130.92;;;31.72;32.93
34658;BME280;20865;43.312;27.152;2023-05-22T08:01:39;100136.14;;;31.86;31.83
34658;BME280;20865;43.312;27.152;2023-05-22T08:04:09;100135.42;;;31.92;32.07
34658;BME280;20865;43.312;27.152;2023-05-22T08:06:36;100125.66;;;32.00;29.79
34658;BME280;20865;43.312;27.152;2023-05-22T08:09:05;100120.61;;;32.18;29.29
34658;BME280;20865;43.312;27.152;2023-05-22T08:11:31;100112.71;;;32.30;29.63
34658;BME280;20865;43.312;27.152;2023-05-22T08:13:59;100123.02;;;32.51;30.81
34658;BME280;20865;43.312;27.152;2023-05-22T08:16:44;100116.66;;;32.32;29.51
34658;BME280;20865;43.312;27.152;2023-05-22T08:19:13;100105.25;;;32.05;28.80
34658;BME280;20865;43.312;27.152;2023-05-22T08:24:24;100104.92;;;32.59;28.35
34658;BME280;20865;43.312;27.152;2023-05-22T08:26:55;100107.41;;;32.43;28.75
34658;BME280;20865;43.312;27.152;2023-05-22T08:29:25;100105.48;;;32.69;29.60
34658;BME280;20865;43.312;27.152;2023-05-22T08:56:23;100094.02;;;28.29;35.60
34658;BME280;20865;43.312;27.152;2023-05-22T08:58:52;100106.72;;;31.78;26.09
34658;BME280;20865;43.312;27.152;2023-05-22T09:01:20;100105.42;;;32.33;24.71
34658;BME280;20865;43.312;27.152;2023-05-22T09:03:49;100097.80;;;32.76;24.73
34658;BME280;20865;43.312;27.152;2023-05-22T09:06:17;100099.51;;;33.02;24.42
34658;BME280;20865;43.312;27.152;2023-05-22T09:08:45;100092.84;;;32.96;23.40
34658;BME280;20865;43.312;27.152;2023-05-22T09:11:13;100094.02;;;33.09;25.06
34658;BME280;20865;43.312;27.152;2023-05-22T09:13:42;100087.63;;;33.08;25.19
34658;BME280;20865;43.312;27.152;2023-05-22T09:16:11;100089.30;;;33.03;25.18
34658;BME280;20865;43.312;27.152;2023-05-22T09:18:40;100094.69;;;33.11;24.84
34658;BME280;20865;43.312;27.152;2023-05-22T09:21:10;100089.69;;;33.10;24.92
34658;BME280;20865;43.312;27.152;2023-05-22T09:23:38;100077.43;;;33.30;24.95
34658;BME280;20865;43.312;27.152;2023-05-22T09:26:05;100079.34;;;33.51;24.98
34658;BME280;20865;43.312;27.152;2023-05-22T09:28:35;100083.73;;;33.56;25.26
34658;BME280;20865;43.312;27.152;2023-05-22T09:31:03;100084.02;;;33.68;25.83
34658;BME280;20865;43.312;27.152;2023-05-22T09:33:31;100082.16;;;33.86;24.74
34658;BME280;20865;43.312;27.152;2023-05-22T09:35:59;100084.94;;;33.93;23.67
34658;BME280;20865;43.312;27.152;2023-05-22T09:38:28;100087.02;;;33.84;23.31
34658;BME280;20865;43.312;27.152;2023-05-22T09:40:56;100088.08;;;33.65;23.61
34658;BME280;20865;43.312;27.152;2023-05-22T09:43:24;100093.05;;;33.49;23.96
34658;BME280;20865;43.312;27.152;2023-05-22T09:46:00;100084.81;;;33.34;24.55
34658;BME280;20865;43.312;27.152;2023-05-22T09:48:33;100082.84;;;33.06;24.47
34658;BME280;20865;43.312;27.152;2023-05-22T09:51:05;100082.45;;;32.94;25.24
34658;BME280;20865;43.312;27.152;2023-05-22T09:53:36;100077.38;;;32.87;25.46
34658;BME280;20865;43.312;27.152;2023-05-22T09:56:05;100077.84;;;32.91;25.91
34658;BME280;20865;43.312;27.152;2023-05-22T09:58:35;100077.98;;;32.93;26.59
34658;BME280;20865;43.312;27.152;2023-05-22T10:01:03;100078.97;;;32.75;26.65
34658;BME280;20865;43.312;27.152;2023-05-22T10:03:34;100062.56;;;32.84;26.52
34658;BME280;20865;43.312;27.152;2023-05-22T10:06:03;100069.94;;;32.88;26.47
34658;BME280;20865;43.312;27.152;2023-05-22T10:08:42;100073.23;;;33.02;26.58
34658;BME280;20865;43.312;27.152;2023-05-22T10:11:06;100070.97;;;33.02;25.45
34658;BME280;20865;43.312;27.152;2023-05-22T10:13:36;100076.31;;;33.03;26.22
34658;BME280;20865;43.312;27.152;2023-05-22T10:16:04;100065.61;;;32.89;26.04
34658;BME280;20865;43.312;27.152;2023-05-22T10:18:33;100066.98;;;32.79;26.12
34658;BME280;20865;43.312;27.152;2023-05-22T10:21:03;100055.32;;;32.72;26.18
34658;BME280;20865;43.312;27.152;2023-05-22T10:23:30;100055.64;;;32.73;26.28
34658;BME280;20865;43.312;27.152;2023-05-22T10:26:00;100060.94;;;32.90;26.48
34658;BME280;20865;43.312;27.152;2023-05-22T10:28:31;100056.28;;;33.01;25.33
34658;BME280;20865;43.312;27.152;2023-05-22T10:31:02;100051.55;;;33.16;24.96
34658;BME280;20865;43.312;27.152;2023-05-22T10:33:40;100051.66;;;33.51;25.16
34658;BME280;20865;43.312;27.152;2023-05-22T10:36:07;100050.56;;;33.63;24.64
34658;BME280;20865;43.312;27.152;2023-05-22T10:41:17;100038.92;;;33.74;23.84
34658;BME280;20865;43.312;27.152;2023-05-22T10:43:49;100051.19;;;33.93;23.97
34658;BME280;20865;43.312;27.152;2023-05-22T10:46:17;100033.05;;;34.01;23.91
34658;BME280;20865;43.312;27.152;2023-05-22T10:48:47;100038.21;;;34.11;23.85
34658;BME280;20865;43.312;27.152;2023-05-22T10:51:20;100030.94;;;34.03;23.61
34658;BME280;20865;43.312;27.152;2023-05-22T10:53:52;100031.98;;;34.26;23.84
34658;BME280;20865;43.312;27.152;2023-05-22T10:56:20;100031.06;;;34.12;23.66
34658;BME280;20865;43.312;27.152;2023-05-22T10:58:56;100027.02;;;33.98;23.52
34658;BME280;20865;43.312;27.152;2023-05-22T11:01:27;100018.91;;;33.96;23.81
34658;BME280;20865;43.312;27.152;2023-05-22T11:09:39;100014.70;;;33.83;23.63
34658;BME280;20865;43.312;27.152;2023-05-22T11:12:16;100011.08;;;33.65;24.39
34658;BME280;20865;43.312;27.152;2023-05-22T11:14:50;100012.92;;;33.47;24.65
34658;BME280;20865;43.312;27.152;2023-05-22T11:17:22;100008.62;;;33.49;24.96
34658;BME280;20865;43.312;27.152;2023-05-22T11:20:05;99999.65;;;33.36;24.62
34658;BME280;20865;43.312;27.152;2023-05-22T11:22:41;100001.48;;;33.11;24.77
34658;BME280;20865;43.312;27.152;2023-05-22T11:25:12;100011.49;;;33.02;24.84
34658;BME280;20865;43.312;27.152;2023-05-22T11:27:40;100021.08;;;32.84;28.83
34658;BME280;20865;43.312;27.152;2023-05-22T11:30:11;100005.83;;;32.88;29.85
34658;BME280;20865;43.312;27.152;2023-05-22T11:32:40;100002.72;;;32.87;29.34
34658;BME280;20865;43.312;27.152;2023-05-22T11:35:19;99994.33;;;32.95;29.08
34658;BME280;20865;43.312;27.152;2023-05-22T11:37:48;100000.72;;;32.96;27.24
34658;BME280;20865;43.312;27.152;2023-05-22T11:40:18;99993.02;;;33.02;27.00
34658;BME280;20865;43.312;27.152;2023-05-22T11:42:47;99991.51;;;33.28;25.79
34658;BME280;20865;43.312;27.152;2023-05-22T11:45:15;99990.86;;;33.43;25.50
34658;BME280;20865;43.312;27.152;2023-05-22T11:47:43;99990.99;;;33.56;25.70
34658;BME280;20865;43.312;27.152;2023-05-22T11:50:12;99986.48;;;33.38;24.17
34658;BME280;20865;43.312;27.152;2023-05-22T11:52:41;99998.40;;;33.38;24.76
34658;BME280;20865;43.312;27.152;2023-05-22T11:55:10;99985.44;;;33.28;24.46
34658;BME280;20865;43.312;27.152;2023-05-22T11:57:38;99988.02;;;33.19;24.73
34658;BME280;20865;43.312;27.152;2023-05-22T12:00:06;99997.30;;;33.22;25.25
34658;BME280;20865;43.312;27.152;2023-05-22T12:02:35;100021.62;;;33.05;25.00
34658;BME280;20865;43.312;27.152;2023-05-22T12:05:03;100037.92;;;32.46;25.57
34658;BME280;20865;43.312;27.152;2023-05-22T14:22:42;100012.98;;;29.16;38.03
34658;BME280;20865;43.312;27.152;2023-05-22T14:25:09;100013.34;;;29.05;37.29
34658;BME280;20865;43.312;27.152;2023-05-22T14:27:37;100017.94;;;28.92;37.76
34658;BME280;20865;43.312;27.152;2023-05-22T14:30:06;100022.42;;;28.22;37.88
34658;BME280;20865;43.312;27.152;2023-05-22T14:32:35;100023.05;;;28.55;38.03
34658;BME280;20865;43.312;27.152;2023-05-22T14:38:20;100018.44;;;28.63;38.52
34658;BME280;20865;43.312;27.152;2023-05-22T14:40:48;100014.33;;;28.96;38.89
34658;BME280;20865;43.312;27.152;2023-05-22T14:43:17;100016.90;;;28.93;38.04
34658;BME280;20865;43.312;27.152;2023-05-22T14:45:45;100017.09;;;28.88;38.08
34658;BME280;20865;43.312;27.152;2023-05-22T14:48:12;100012.27;;;28.78;38.09
34658;BME280;20865;43.312;27.152;2023-05-22T14:50:40;100014.67;;;28.85;37.21
34658;BME280;20865;43.312;27.152;2023-05-22T14:53:07;100017.45;;;29.09;37.70
34658;BME280;20865;43.312;27.152;2023-05-22T14:55:35;100013.00;;;29.08;37.38
34658;BME280;20865;43.312;27.152;2023-05-22T14:58:03;100018.45;;;28.96;36.47
34658;BME280;20865;43.312;27.152;2023-05-22T15:00:31;100015.88;;;28.70;36.61
34658;BME280;20865;43.312;27.152;2023-05-22T15:02:58;100008.48;;;28.83;36.93
34658;BME280;20865;43.312;27.152;2023-05-22T15:05:28;100006.59;;;28.83;36.72
34658;BME280;20865;43.312;27.152;2023-05-22T15:07:56;100014.84;;;28.63;37.13
34658;BME280;20865;43.312;27.152;2023-05-22T15:10:24;100013.09;;;28.66;37.07
34658;BME280;20865;43.312;27.152;2023-05-22T15:12:53;100020.15;;;28.64;36.73
34658;BME280;20865;43.312;27.152;2023-05-22T15:15:22;100020.52;;;28.78;37.09
34658;BME280;20865;43.312;27.152;2023-05-22T15:17:49;100014.67;;;28.89;37.29
34658;BME280;20865;43.312;27.152;2023-05-22T15:20:17;100009.52;;;28.90;36.83
34658;BME280;20865;43.312;27.152;2023-05-22T15:22:45;100011.92;;;28.89;36.70
34658;BME280;20865;43.312;27.152;2023-05-22T15:25:14;100005.05;;;28.89;36.94
34658;BME280;20865;43.312;27.152;2023-05-22T15:27:42;100004.20;;;28.80;36.96
34658;BME280;20865;43.312;27.152;2023-05-22T15:30:09;100004.88;;;28.70;36.44
34658;BME280;20865;43.312;27.152;2023-05-22T15:32:37;99997.47;;;28.62;36.78
34658;BME280;20865;43.312;27.152;2023-05-22T15:35:06;99997.83;;;28.63;37.26
34658;BME280;20865;43.312;27.152;2023-05-22T15:37:34;99997.83;;;28.76;37.36
34658;BME280;20865;43.312;27.152;2023-05-22T15:40:03;99994.56;;;28.60;37.54
34658;BME280;20865;43.312;27.152;2023-05-22T15:42:31;99989.74;;;28.66;37.61
34658;BME280;20865;43.312;27.152;2023-05-22T15:44:59;99983.73;;;28.54;37.32
34658;BME280;20865;43.312;27.152;2023-05-22T15:47:27;99984.91;;;28.39;37.57
34658;BME280;20865;43.312;27.152;2023-05-22T15:49:55;99990.52;;;28.34;37.57
34658;BME280;20865;43.312;27.152;2023-05-22T15:52:23;99988.00;;;28.40;38.15